sensor_id;sensor_type;location;lat;lon;timestamp;temperature;humidity
35531;DHT22;21637;53.352;-6.356;2022-10-31T00:00:15;13.40;99.90
35531;DHT22;21637;53.352;-6.356;2022-10-31T00:02:41;13.40;99.90
35531;DHT22;21637;53.352;-6.356;2022-10-31T00:05:06;13.30;99.90
35531;DHT22;21637;53.352;-6.356;2022-10-31T00:07:32;13.30;99.90
35531;DHT22;21637;53.352;-6.356;2022-10-31T00:09:57;13.30;99.90
35531;DHT22;21637;53.352;-6.356;2022-10-31T00:12:23;13.30;99.90
35531;DHT22;21637;53.352;-6.356;2022-10-31T00:14:49;13.40;99.90
35531;DHT22;21637;53.352;-6.356;2022-10-31T00:17:15;13.40;99.90
35531;DHT22;21637;53.352;-6.356;2022-10-31T00:19:40;13.40;99.90
35531;DHT22;21637;53.352;-6.356;2022-10-31T00:22:06;13.40;99.90
35531;DHT22;21637;53.352;-6.356;2022-10-31T00:24:31;13.40;99.90
35531;DHT22;21637;53.352;-6.356;2022-10-31T00:26:57;13.40;99.90
35531;DHT22;21637;53.352;-6.356;2022-10-31T00:29:22;13.30;99.90
35531;DHT22;21637;53.352;-6.356;2022-10-31T00:31:48;13.20;99.90
35531;DHT22;21637;53.352;-6.356;2022-10-31T00:34:13;13.20;99.90
35531;DHT22;21637;53.352;-6.356;2022-10-31T00:36:39;13.20;99.90
35531;DHT22;21637;53.352;-6.356;2022-10-31T00:39:04;13.20;99.90
35531;DHT22;21637;53.352;-6.356;2022-10-31T00:41:30;13.10;99.90
35531;DHT22;21637;53.352;-6.356;2022-10-31T00:43:56;13.10;99.90
35531;DHT22;21637;53.352;-6.356;2022-10-31T00:46:21;13.10;99.90
35531;DHT22;21637;53.352;-6.356;2022-10-31T00:48:47;13.10;99.90
35531;DHT22;21637;53.352;-6.356;2022-10-31T00:51:12;13.10;99.90
35531;DHT22;21637;53.352;-6.356;2022-10-31T00:53:38;13.10;99.90
35531;DHT22;21637;53.352;-6.356;2022-10-31T00:56:03;13.20;99.90
35531;DHT22;21637;53.352;-6.356;2022-10-31T00:58:29;13.20;99.90
35531;DHT22;21637;53.352;-6.356;2022-10-31T01:00:55;13.20;99.90
35531;DHT22;21637;53.352;-6.356;2022-10-31T01:03:21;13.10;99.90
35531;DHT22;21637;53.352;-6.356;2022-10-31T01:05:55;13.20;99.90
35531;DHT22;21637;53.352;-6.356;2022-10-31T01:08:20;13.20;99.90
35531;DHT22;21637;53.352;-6.356;2022-10-31T01:10:46;13.30;99.90
35531;DHT22;21637;53.352;-6.356;2022-10-31T01:13:11;13.30;99.90
35531;DHT22;21637;53.352;-6.356;2022-10-31T01:15:37;13.40;99.90
35531;DHT22;21637;53.352;-6.356;2022-10-31T01:18:02;13.40;99.90
35531;DHT22;21637;53.352;-6.356;2022-10-31T01:20:28;13.40;99.90
35531;DHT22;21637;53.352;-6.356;2022-10-31T01:22:53;13.50;99.90
35531;DHT22;21637;53.352;-6.356;2022-10-31T01:25:19;13.50;99.90
35531;DHT22;21637;53.352;-6.356;2022-10-31T01:27:45;13.50;99.90
35531;DHT22;21637;53.352;-6.356;2022-10-31T01:30:10;13.50;99.90
35531;DHT22;21637;53.352;-6.356;2022-10-31T01:32:36;13.60;99.90
35531;DHT22;21637;53.352;-6.356;2022-10-31T01:35:01;13.70;99.90
35531;DHT22;21637;53.352;-6.356;2022-10-31T01:37:27;13.70;99.90
35531;DHT22;21637;53.352;-6.356;2022-10-31T01:39:53;13.80;99.90
35531;DHT22;21637;53.352;-6.356;2022-10-31T01:42:19;13.80;99.90
35531;DHT22;21637;53.352;-6.356;2022-10-31T01:47:14;13.70;99.90
35531;DHT22;21637;53.352;-6.356;2022-10-31T01:50:03;13.80;99.90
35531;DHT22;21637;53.352;-6.356;2022-10-31T01:54:55;13.80;99.90
35531;DHT22;21637;53.352;-6.356;2022-10-31T01:57:22;13.80;99.90
35531;DHT22;21637;53.352;-6.356;2022-10-31T01:59:49;13.80;99.90
35531;DHT22;21637;53.352;-6.356;2022-10-31T02:02:16;13.70;99.90
35531;DHT22;21637;53.352;-6.356;2022-10-31T02:04:43;13.70;99.90
35531;DHT22;21637;53.352;-6.356;2022-10-31T02:07:20;13.70;99.90
35531;DHT22;21637;53.352;-6.356;2022-10-31T02:09:47;13.70;99.90
35531;DHT22;21637;53.352;-6.356;2022-10-31T02:12:13;13.70;99.90
35531;DHT22;21637;53.352;-6.356;2022-10-31T02:14:40;13.70;99.90
35531;DHT22;21637;53.352;-6.356;2022-10-31T02:17:05;13.70;99.90
35531;DHT22;21637;53.352;-6.356;2022-10-31T02:22:15;13.60;99.90
35531;DHT22;21637;53.352;-6.356;2022-10-31T02:24:46;13.60;99.90
35531;DHT22;21637;53.352;-6.356;2022-10-31T02:32:19;13.70;99.90
35531;DHT22;21637;53.352;-6.356;2022-10-31T02:34:57;13.70;99.90
35531;DHT22;21637;53.352;-6.356;2022-10-31T02:37:37;13.70;99.90
35531;DHT22;21637;53.352;-6.356;2022-10-31T02:40:14;13.70;99.90
35531;DHT22;21637;53.352;-6.356;2022-10-31T02:47:47;13.70;99.90
35531;DHT22;21637;53.352;-6.356;2022-10-31T02:50:16;13.70;99.90
35531;DHT22;21637;53.352;-6.356;2022-10-31T02:52:43;13.70;99.90
35531;DHT22;21637;53.352;-6.356;2022-10-31T02:55:13;13.70;99.90
35531;DHT22;21637;53.352;-6.356;2022-10-31T02:58:16;13.70;99.90
35531;DHT22;21637;53.352;-6.356;2022-10-31T03:00:42;13.60;99.90
35531;DHT22;21637;53.352;-6.356;2022-10-31T03:06:00;13.60;99.90
35531;DHT22;21637;53.352;-6.356;2022-10-31T03:10:57;13.60;99.90
35531;DHT22;21637;53.352;-6.356;2022-10-31T03:15:49;13.70;99.90
35531;DHT22;21637;53.352;-6.356;2022-10-31T03:18:17;13.70;99.90
35531;DHT22;21637;53.352;-6.356;2022-10-31T03:20:47;13.60;99.90
35531;DHT22;21637;53.352;-6.356;2022-10-31T03:23:16;13.70;99.90
35531;DHT22;21637;53.352;-6.356;2022-10-31T03:25:42;13.60;99.90
35531;DHT22;21637;53.352;-6.356;2022-10-31T03:28:09;13.60;99.90
35531;DHT22;21637;53.352;-6.356;2022-10-31T03:30:37;13.60;99.90
35531;DHT22;21637;53.352;-6.356;2022-10-31T03:33:04;13.50;99.90
35531;DHT22;21637;53.352;-6.356;2022-10-31T03:35:31;13.50;99.90
35531;DHT22;21637;53.352;-6.356;2022-10-31T03:37:58;13.50;99.90
35531;DHT22;21637;53.352;-6.356;2022-10-31T03:40:24;13.50;99.90
35531;DHT22;21637;53.352;-6.356;2022-10-31T03:42:53;13.50;99.90
35531;DHT22;21637;53.352;-6.356;2022-10-31T03:45:26;13.50;99.90
35531;DHT22;21637;53.352;-6.356;2022-10-31T03:47:53;13.50;99.90
35531;DHT22;21637;53.352;-6.356;2022-10-31T03:50:19;13.50;99.90
35531;DHT22;21637;53.352;-6.356;2022-10-31T03:52:49;13.50;99.90
35531;DHT22;21637;53.352;-6.356;2022-10-31T03:55:18;13.50;99.90
35531;DHT22;21637;53.352;-6.356;2022-10-31T04:00:13;13.60;99.90
35531;DHT22;21637;53.352;-6.356;2022-10-31T04:02:40;13.60;99.90
35531;DHT22;21637;53.352;-6.356;2022-10-31T04:05:06;13.60;99.90
35531;DHT22;21637;53.352;-6.356;2022-10-31T04:07:41;13.60;99.90
35531;DHT22;21637;53.352;-6.356;2022-10-31T04:10:10;13.70;99.90
35531;DHT22;21637;53.352;-6.356;2022-10-31T04:12:36;13.80;99.90
35531;DHT22;21637;53.352;-6.356;2022-10-31T04:15:03;13.80;99.90
35531;DHT22;21637;53.352;-6.356;2022-10-31T04:17:31;13.80;99.90
35531;DHT22;21637;53.352;-6.356;2022-10-31T04:20:00;13.80;99.90
35531;DHT22;21637;53.352;-6.356;2022-10-31T04:22:26;13.70;99.90
35531;DHT22;21637;53.352;-6.356;2022-10-31T04:24:52;13.60;99.90
35531;DHT22;21637;53.352;-6.356;2022-10-31T04:27:17;13.50;99.90
35531;DHT22;21637;53.352;-6.356;2022-10-31T04:29:43;13.50;99.90
35531;DHT22;21637;53.352;-6.356;2022-10-31T04:32:08;13.50;99.90
35531;DHT22;21637;53.352;-6.356;2022-10-31T04:34:34;13.50;99.90
35531;DHT22;21637;53.352;-6.356;2022-10-31T04:36:59;13.50;99.90
35531;DHT22;21637;53.352;-6.356;2022-10-31T04:39:25;13.50;99.90
35531;DHT22;21637;53.352;-6.356;2022-10-31T04:41:51;13.60;99.90
35531;DHT22;21637;53.352;-6.356;2022-10-31T04:44:16;13.60;99.90
35531;DHT22;21637;53.352;-6.356;2022-10-31T04:46:42;13.70;99.90
35531;DHT22;21637;53.352;-6.356;2022-10-31T04:49:07;13.80;99.90
35531;DHT22;21637;53.352;-6.356;2022-10-31T04:51:33;13.90;99.90
35531;DHT22;21637;53.352;-6.356;2022-10-31T04:53:58;13.90;99.90
35531;DHT22;21637;53.352;-6.356;2022-10-31T04:56:24;13.90;99.90
35531;DHT22;21637;53.352;-6.356;2022-10-31T04:58:49;13.90;99.90
35531;DHT22;21637;53.352;-6.356;2022-10-31T05:01:15;13.90;99.90
35531;DHT22;21637;53.352;-6.356;2022-10-31T05:03:40;13.90;99.90
35531;DHT22;21637;53.352;-6.356;2022-10-31T05:06:06;13.90;99.90
35531;DHT22;21637;53.352;-6.356;2022-10-31T05:08:32;13.90;99.90
35531;DHT22;21637;53.352;-6.356;2022-10-31T05:11:01;13.90;99.90
35531;DHT22;21637;53.352;-6.356;2022-10-31T05:13:27;13.90;99.90
35531;DHT22;21637;53.352;-6.356;2022-10-31T05:15:53;13.90;99.90
35531;DHT22;21637;53.352;-6.356;2022-10-31T05:18:18;13.90;99.90
35531;DHT22;21637;53.352;-6.356;2022-10-31T05:20:44;13.90;99.90
35531;DHT22;21637;53.352;-6.356;2022-10-31T05:23:09;13.90;99.90
35531;DHT22;21637;53.352;-6.356;2022-10-31T05:25:35;13.90;99.90
35531;DHT22;21637;53.352;-6.356;2022-10-31T05:28:00;13.90;99.90
35531;DHT22;21637;53.352;-6.356;2022-10-31T05:30:30;14.00;99.90
35531;DHT22;21637;53.352;-6.356;2022-10-31T05:32:55;14.00;99.90
35531;DHT22;21637;53.352;-6.356;2022-10-31T05:35:22;14.00;99.90
35531;DHT22;21637;53.352;-6.356;2022-10-31T05:37:48;14.00;99.90
35531;DHT22;21637;53.352;-6.356;2022-10-31T05:40:15;14.00;99.90
35531;DHT22;21637;53.352;-6.356;2022-10-31T05:42:41;14.00;99.90
35531;DHT22;21637;53.352;-6.356;2022-10-31T05:45:08;14.00;99.90
35531;DHT22;21637;53.352;-6.356;2022-10-31T05:47:34;14.00;99.90
35531;DHT22;21637;53.352;-6.356;2022-10-31T05:49:59;14.00;99.90
35531;DHT22;21637;53.352;-6.356;2022-10-31T05:52:25;14.00;99.90
35531;DHT22;21637;53.352;-6.356;2022-10-31T05:54:50;14.00;99.90
35531;DHT22;21637;53.352;-6.356;2022-10-31T05:57:16;14.00;99.90
35531;DHT22;21637;53.352;-6.356;2022-10-31T05:59:41;14.00;99.90
35531;DHT22;21637;53.352;-6.356;2022-10-31T06:02:07;14.00;99.90
35531;DHT22;21637;53.352;-6.356;2022-10-31T06:04:32;13.90;99.90
35531;DHT22;21637;53.352;-6.356;2022-10-31T06:06:58;14.00;99.90
35531;DHT22;21637;53.352;-6.356;2022-10-31T06:09:24;14.00;99.90
35531;DHT22;21637;53.352;-6.356;2022-10-31T06:11:49;14.10;99.90
35531;DHT22;21637;53.352;-6.356;2022-10-31T06:14:15;14.20;99.90
35531;DHT22;21637;53.352;-6.356;2022-10-31T06:16:40;14.20;99.90
35531;DHT22;21637;53.352;-6.356;2022-10-31T06:19:06;14.20;99.90
35531;DHT22;21637;53.352;-6.356;2022-10-31T06:21:31;14.20;99.90
35531;DHT22;21637;53.352;-6.356;2022-10-31T06:23:57;14.20;99.90
35531;DHT22;21637;53.352;-6.356;2022-10-31T06:26:22;14.20;99.90
35531;DHT22;21637;53.352;-6.356;2022-10-31T06:28:48;14.20;99.90
35531;DHT22;21637;53.352;-6.356;2022-10-31T06:31:14;14.20;99.90
35531;DHT22;21637;53.352;-6.356;2022-10-31T06:33:42;14.10;99.90
35531;DHT22;21637;53.352;-6.356;2022-10-31T06:36:08;14.10;99.90
35531;DHT22;21637;53.352;-6.356;2022-10-31T06:38:34;14.00;99.90
35531;DHT22;21637;53.352;-6.356;2022-10-31T06:41:03;14.00;99.90
35531;DHT22;21637;53.352;-6.356;2022-10-31T06:43:29;14.00;99.90
35531;DHT22;21637;53.352;-6.356;2022-10-31T06:45:55;14.00;99.90
35531;DHT22;21637;53.352;-6.356;2022-10-31T06:48:21;14.00;99.90
35531;DHT22;21637;53.352;-6.356;2022-10-31T06:50:46;14.00;99.90
35531;DHT22;21637;53.352;-6.356;2022-10-31T06:53:12;14.00;99.90
35531;DHT22;21637;53.352;-6.356;2022-10-31T06:55:39;14.00;99.90
35531;DHT22;21637;53.352;-6.356;2022-10-31T06:58:05;14.00;99.90
35531;DHT22;21637;53.352;-6.356;2022-10-31T07:00:31;14.00;99.90
35531;DHT22;21637;53.352;-6.356;2022-10-31T07:02:57;14.00;99.90
35531;DHT22;21637;53.352;-6.356;2022-10-31T07:05:23;14.00;99.90
35531;DHT22;21637;53.352;-6.356;2022-10-31T07:07:56;14.00;99.90
35531;DHT22;21637;53.352;-6.356;2022-10-31T07:10:22;14.00;99.90
35531;DHT22;21637;53.352;-6.356;2022-10-31T07:12:48;13.90;99.90
35531;DHT22;21637;53.352;-6.356;2022-10-31T07:15:14;13.90;99.90
35531;DHT22;21637;53.352;-6.356;2022-10-31T07:17:39;13.90;99.90
35531;DHT22;21637;53.352;-6.356;2022-10-31T07:20:05;13.90;99.90
35531;DHT22;21637;53.352;-6.356;2022-10-31T07:22:34;14.00;99.90
35531;DHT22;21637;53.352;-6.356;2022-10-31T07:25:00;14.10;99.90
35531;DHT22;21637;53.352;-6.356;2022-10-31T07:27:25;14.10;99.90
35531;DHT22;21637;53.352;-6.356;2022-10-31T07:29:51;14.10;99.90
35531;DHT22;21637;53.352;-6.356;2022-10-31T07:32:16;14.10;99.90
35531;DHT22;21637;53.352;-6.356;2022-10-31T07:34:42;14.10;99.90
35531;DHT22;21637;53.352;-6.356;2022-10-31T07:37:07;14.10;99.90
35531;DHT22;21637;53.352;-6.356;2022-10-31T07:39:33;14.00;99.90
35531;DHT22;21637;53.352;-6.356;2022-10-31T07:41:59;14.00;99.90
35531;DHT22;21637;53.352;-6.356;2022-10-31T07:44:24;14.00;99.90
35531;DHT22;21637;53.352;-6.356;2022-10-31T07:46:50;14.00;99.90
35531;DHT22;21637;53.352;-6.356;2022-10-31T07:49:15;14.00;99.90
35531;DHT22;21637;53.352;-6.356;2022-10-31T07:51:41;14.10;99.90
35531;DHT22;21637;53.352;-6.356;2022-10-31T07:54:07;14.20;99.90
35531;DHT22;21637;53.352;-6.356;2022-10-31T07:56:32;14.20;99.90
35531;DHT22;21637;53.352;-6.356;2022-10-31T07:58:58;14.20;99.90
35531;DHT22;21637;53.352;-6.356;2022-10-31T08:01:23;14.20;99.90
35531;DHT22;21637;53.352;-6.356;2022-10-31T08:03:49;14.30;99.90
35531;DHT22;21637;53.352;-6.356;2022-10-31T08:06:14;14.40;99.90
35531;DHT22;21637;53.352;-6.356;2022-10-31T08:08:40;14.50;99.90
35531;DHT22;21637;53.352;-6.356;2022-10-31T08:11:06;14.50;99.90
35531;DHT22;21637;53.352;-6.356;2022-10-31T08:13:31;14.50;99.90
35531;DHT22;21637;53.352;-6.356;2022-10-31T08:15:57;14.50;99.90
35531;DHT22;21637;53.352;-6.356;2022-10-31T08:18:28;14.50;99.90
35531;DHT22;21637;53.352;-6.356;2022-10-31T08:20:54;14.50;99.90
35531;DHT22;21637;53.352;-6.356;2022-10-31T08:23:20;14.50;99.90
35531;DHT22;21637;53.352;-6.356;2022-10-31T08:25:45;14.60;99.90
35531;DHT22;21637;53.352;-6.356;2022-10-31T08:28:13;14.70;99.90
35531;DHT22;21637;53.352;-6.356;2022-10-31T08:30:39;14.70;99.90
35531;DHT22;21637;53.352;-6.356;2022-10-31T08:33:06;14.80;99.90
35531;DHT22;21637;53.352;-6.356;2022-10-31T08:35:32;14.90;99.90
35531;DHT22;21637;53.352;-6.356;2022-10-31T08:37:58;14.90;99.90
35531;DHT22;21637;53.352;-6.356;2022-10-31T08:40:24;14.90;99.90
35531;DHT22;21637;53.352;-6.356;2022-10-31T08:43:00;14.90;99.90
35531;DHT22;21637;53.352;-6.356;2022-10-31T08:45:26;14.90;99.90
35531;DHT22;21637;53.352;-6.356;2022-10-31T08:47:51;14.90;99.90
35531;DHT22;21637;53.352;-6.356;2022-10-31T08:50:17;14.80;99.90
35531;DHT22;21637;53.352;-6.356;2022-10-31T08:52:43;14.80;99.90
35531;DHT22;21637;53.352;-6.356;2022-10-31T08:55:09;14.80;99.90
35531;DHT22;21637;53.352;-6.356;2022-10-31T08:57:34;15.00;99.90
35531;DHT22;21637;53.352;-6.356;2022-10-31T09:00:00;15.10;99.90
35531;DHT22;21637;53.352;-6.356;2022-10-31T09:02:25;15.00;99.90
35531;DHT22;21637;53.352;-6.356;2022-10-31T09:04:51;15.10;99.90
35531;DHT22;21637;53.352;-6.356;2022-10-31T09:07:16;15.10;99.90
35531;DHT22;21637;53.352;-6.356;2022-10-31T09:09:42;15.10;99.90
35531;DHT22;21637;53.352;-6.356;2022-10-31T09:12:08;15.10;99.90
35531;DHT22;21637;53.352;-6.356;2022-10-31T09:14:33;15.00;99.90
35531;DHT22;21637;53.352;-6.356;2022-10-31T09:16:59;15.00;99.90
35531;DHT22;21637;53.352;-6.356;2022-10-31T09:19:24;14.90;99.90
35531;DHT22;21637;53.352;-6.356;2022-10-31T09:21:53;14.80;99.90
35531;DHT22;21637;53.352;-6.356;2022-10-31T09:24:19;14.80;99.90
35531;DHT22;21637;53.352;-6.356;2022-10-31T09:26:45;14.80;99.90
35531;DHT22;21637;53.352;-6.356;2022-10-31T09:29:10;14.70;99.90
35531;DHT22;21637;53.352;-6.356;2022-10-31T09:31:36;14.70;99.90
35531;DHT22;21637;53.352;-6.356;2022-10-31T09:34:01;14.70;99.90
35531;DHT22;21637;53.352;-6.356;2022-10-31T09:36:27;14.70;99.90
35531;DHT22;21637;53.352;-6.356;2022-10-31T09:38:52;14.70;99.90
35531;DHT22;21637;53.352;-6.356;2022-10-31T09:48:53;14.60;99.90
35531;DHT22;21637;53.352;-6.356;2022-10-31T09:51:23;14.60;99.90
35531;DHT22;21637;53.352;-6.356;2022-10-31T09:54:09;14.60;99.90
35531;DHT22;21637;53.352;-6.356;2022-10-31T09:56:36;14.60;99.90
35531;DHT22;21637;53.352;-6.356;2022-10-31T09:59:02;14.70;99.90
35531;DHT22;21637;53.352;-6.356;2022-10-31T10:03:55;14.80;99.90
35531;DHT22;21637;53.352;-6.356;2022-10-31T10:06:26;14.90;99.90
35531;DHT22;21637;53.352;-6.356;2022-10-31T10:08:52;14.90;99.90
35531;DHT22;21637;53.352;-6.356;2022-10-31T10:11:28;15.00;99.90
35531;DHT22;21637;53.352;-6.356;2022-10-31T10:14:01;15.10;99.90
35531;DHT22;21637;53.352;-6.356;2022-10-31T10:16:47;15.20;99.90
35531;DHT22;21637;53.352;-6.356;2022-10-31T10:24:26;15.40;99.90
35531;DHT22;21637;53.352;-6.356;2022-10-31T10:26:58;15.40;99.90
35531;DHT22;21637;53.352;-6.356;2022-10-31T10:29:33;15.50;99.90
35531;DHT22;21637;53.352;-6.356;2022-10-31T10:32:00;15.50;99.90
35531;DHT22;21637;53.352;-6.356;2022-10-31T10:34:28;15.50;99.90
35531;DHT22;21637;53.352;-6.356;2022-10-31T10:37:03;15.60;99.90
35531;DHT22;21637;53.352;-6.356;2022-10-31T10:39:30;15.60;99.90
35531;DHT22;21637;53.352;-6.356;2022-10-31T10:41:58;15.60;99.90
35531;DHT22;21637;53.352;-6.356;2022-10-31T10:44:47;15.70;99.90
35531;DHT22;21637;53.352;-6.356;2022-10-31T10:47:41;15.80;99.90
35531;DHT22;21637;53.352;-6.356;2022-10-31T10:50:30;15.90;99.90
35531;DHT22;21637;53.352;-6.356;2022-10-31T10:53:08;16.00;99.90
35531;DHT22;21637;53.352;-6.356;2022-10-31T10:56:20;16.10;99.90
35531;DHT22;21637;53.352;-6.356;2022-10-31T10:58:38;16.10;99.90
35531;DHT22;21637;53.352;-6.356;2022-10-31T11:01:08;16.20;99.90
35531;DHT22;21637;53.352;-6.356;2022-10-31T11:03:35;16.20;99.90
35531;DHT22;21637;53.352;-6.356;2022-10-31T11:06:01;16.30;99.90
35531;DHT22;21637;53.352;-6.356;2022-10-31T11:08:32;16.30;99.90
35531;DHT22;21637;53.352;-6.356;2022-10-31T11:13:26;16.50;99.90
35531;DHT22;21637;53.352;-6.356;2022-10-31T11:15:54;16.50;99.90
35531;DHT22;21637;53.352;-6.356;2022-10-31T11:18:25;16.50;99.90
35531;DHT22;21637;53.352;-6.356;2022-10-31T11:20:51;16.50;99.90
35531;DHT22;21637;53.352;-6.356;2022-10-31T11:23:18;16.50;99.90
35531;DHT22;21637;53.352;-6.356;2022-10-31T11:25:51;16.50;99.90
35531;DHT22;21637;53.352;-6.356;2022-10-31T11:28:17;16.50;99.90
35531;DHT22;21637;53.352;-6.356;2022-10-31T11:30:47;16.50;99.90
35531;DHT22;21637;53.352;-6.356;2022-10-31T11:33:31;16.40;99.90
35531;DHT22;21637;53.352;-6.356;2022-10-31T11:35:58;16.40;99.90
35531;DHT22;21637;53.352;-6.356;2022-10-31T11:38:24;16.10;99.90
35531;DHT22;21637;53.352;-6.356;2022-10-31T11:40:52;15.90;99.90
35531;DHT22;21637;53.352;-6.356;2022-10-31T11:43:18;15.50;99.90
35531;DHT22;21637;53.352;-6.356;2022-10-31T11:45:44;15.30;99.90
35531;DHT22;21637;53.352;-6.356;2022-10-31T11:48:15;15.20;99.90
35531;DHT22;21637;53.352;-6.356;2022-10-31T11:50:41;15.10;99.90
35531;DHT22;21637;53.352;-6.356;2022-10-31T11:56:15;14.80;99.90
35531;DHT22;21637;53.352;-6.356;2022-10-31T11:58:41;14.70;99.90
35531;DHT22;21637;53.352;-6.356;2022-10-31T12:01:08;14.70;99.90
35531;DHT22;21637;53.352;-6.356;2022-10-31T12:03:57;14.70;99.90
35531;DHT22;21637;53.352;-6.356;2022-10-31T12:06:28;14.70;99.90
35531;DHT22;21637;53.352;-6.356;2022-10-31T12:08:54;14.80;99.90
35531;DHT22;21637;53.352;-6.356;2022-10-31T12:19:13;15.00;99.90
35531;DHT22;21637;53.352;-6.356;2022-10-31T12:24:13;15.10;99.90
35531;DHT22;21637;53.352;-6.356;2022-10-31T12:29:37;15.20;99.90
35531;DHT22;21637;53.352;-6.356;2022-10-31T12:40:29;15.40;99.90
35531;DHT22;21637;53.352;-6.356;2022-10-31T12:50:59;15.40;99.90
35531;DHT22;21637;53.352;-6.356;2022-10-31T12:53:37;15.40;99.90
35531;DHT22;21637;53.352;-6.356;2022-10-31T12:56:32;15.50;99.90
35531;DHT22;21637;53.352;-6.356;2022-10-31T13:01:51;15.50;99.90
35531;DHT22;21637;53.352;-6.356;2022-10-31T13:07:22;15.70;99.90
35531;DHT22;21637;53.352;-6.356;2022-10-31T13:12:23;15.80;99.90
35531;DHT22;21637;53.352;-6.356;2022-10-31T13:19:49;15.90;99.90
35531;DHT22;21637;53.352;-6.356;2022-10-31T13:22:16;15.80;99.90
35531;DHT22;21637;53.352;-6.356;2022-10-31T13:24:44;15.70;99.90
35531;DHT22;21637;53.352;-6.356;2022-10-31T13:27:22;15.70;99.90
35531;DHT22;21637;53.352;-6.356;2022-10-31T13:29:59;15.60;99.90
35531;DHT22;21637;53.352;-6.356;2022-10-31T13:32:35;15.60;99.90
35531;DHT22;21637;53.352;-6.356;2022-10-31T13:35:02;15.50;99.90
35531;DHT22;21637;53.352;-6.356;2022-10-31T13:37:30;15.50;99.90
35531;DHT22;21637;53.352;-6.356;2022-10-31T13:42:43;15.50;99.90
35531;DHT22;21637;53.352;-6.356;2022-10-31T13:45:14;15.50;99.90
35531;DHT22;21637;53.352;-6.356;2022-10-31T13:47:42;15.50;99.90
35531;DHT22;21637;53.352;-6.356;2022-10-31T13:50:21;15.50;99.90
35531;DHT22;21637;53.352;-6.356;2022-10-31T13:52:47;15.40;99.90
35531;DHT22;21637;53.352;-6.356;2022-10-31T13:57:57;15.40;99.90
35531;DHT22;21637;53.352;-6.356;2022-10-31T14:00:24;15.40;99.90
35531;DHT22;21637;53.352;-6.356;2022-10-31T14:02:55;15.40;99.90
35531;DHT22;21637;53.352;-6.356;2022-10-31T14:05:26;15.40;99.90
35531;DHT22;21637;53.352;-6.356;2022-10-31T14:07:53;15.40;99.90
35531;DHT22;21637;53.352;-6.356;2022-10-31T14:12:48;15.40;99.90
35531;DHT22;21637;53.352;-6.356;2022-10-31T14:15:16;15.40;99.90
35531;DHT22;21637;53.352;-6.356;2022-10-31T14:17:52;15.40;99.90
35531;DHT22;21637;53.352;-6.356;2022-10-31T14:22:45;15.40;99.90
35531;DHT22;21637;53.352;-6.356;2022-10-31T14:25:30;15.40;99.90
35531;DHT22;21637;53.352;-6.356;2022-10-31T14:27:56;15.40;99.90
35531;DHT22;21637;53.352;-6.356;2022-10-31T14:30:23;15.40;99.90
35531;DHT22;21637;53.352;-6.356;2022-10-31T14:32:52;15.40;99.90
35531;DHT22;21637;53.352;-6.356;2022-10-31T14:35:18;15.40;99.90
35531;DHT22;21637;53.352;-6.356;2022-10-31T14:52:52;15.40;99.90
35531;DHT22;21637;53.352;-6.356;2022-10-31T14:55:18;15.40;99.90
35531;DHT22;21637;53.352;-6.356;2022-10-31T14:57:48;15.40;99.90
35531;DHT22;21637;53.352;-6.356;2022-10-31T15:00:17;15.40;99.90
35531;DHT22;21637;53.352;-6.356;2022-10-31T15:05:51;15.40;99.90
35531;DHT22;21637;53.352;-6.356;2022-10-31T15:08:27;15.30;99.90
35531;DHT22;21637;53.352;-6.356;2022-10-31T15:10:54;15.30;99.90
35531;DHT22;21637;53.352;-6.356;2022-10-31T15:13:20;15.20;99.90
35531;DHT22;21637;53.352;-6.356;2022-10-31T15:15:47;15.20;99.90
35531;DHT22;21637;53.352;-6.356;2022-10-31T15:18:15;15.10;99.90
35531;DHT22;21637;53.352;-6.356;2022-10-31T15:20:42;15.00;99.90
35531;DHT22;21637;53.352;-6.356;2022-10-31T15:23:27;14.90;99.90
35531;DHT22;21637;53.352;-6.356;2022-10-31T15:25:59;14.90;99.90
35531;DHT22;21637;53.352;-6.356;2022-10-31T15:28:26;14.80;99.90
35531;DHT22;21637;53.352;-6.356;2022-10-31T15:30:53;14.70;99.90
35531;DHT22;21637;53.352;-6.356;2022-10-31T15:33:20;14.70;99.90
35531;DHT22;21637;53.352;-6.356;2022-10-31T15:35:54;14.70;99.90
35531;DHT22;21637;53.352;-6.356;2022-10-31T15:38:20;14.70;99.90
35531;DHT22;21637;53.352;-6.356;2022-10-31T15:43:20;14.60;99.90
35531;DHT22;21637;53.352;-6.356;2022-10-31T15:45:46;14.60;99.90
35531;DHT22;21637;53.352;-6.356;2022-10-31T15:48:14;14.60;99.90
35531;DHT22;21637;53.352;-6.356;2022-10-31T15:50:45;14.50;99.90
35531;DHT22;21637;53.352;-6.356;2022-10-31T15:53:18;14.50;99.90
35531;DHT22;21637;53.352;-6.356;2022-10-31T15:55:46;14.50;99.90
35531;DHT22;21637;53.352;-6.356;2022-10-31T15:58:13;14.50;99.90
35531;DHT22;21637;53.352;-6.356;2022-10-31T16:00:40;14.50;99.90
35531;DHT22;21637;53.352;-6.356;2022-10-31T16:03:27;14.50;99.90
35531;DHT22;21637;53.352;-6.356;2022-10-31T16:05:52;14.40;99.90
35531;DHT22;21637;53.352;-6.356;2022-10-31T16:08:22;14.40;99.90
35531;DHT22;21637;53.352;-6.356;2022-10-31T16:10:49;14.40;99.90
35531;DHT22;21637;53.352;-6.356;2022-10-31T16:13:14;14.40;99.90
35531;DHT22;21637;53.352;-6.356;2022-10-31T16:15:47;14.40;99.90
35531;DHT22;21637;53.352;-6.356;2022-10-31T16:18:13;14.30;99.90
35531;DHT22;21637;53.352;-6.356;2022-10-31T16:20:38;14.30;99.90
35531;DHT22;21637;53.352;-6.356;2022-10-31T16:23:04;14.30;99.90
35531;DHT22;21637;53.352;-6.356;2022-10-31T16:25:34;14.20;99.90
35531;DHT22;21637;53.352;-6.356;2022-10-31T16:28:04;14.20;99.90
35531;DHT22;21637;53.352;-6.356;2022-10-31T16:30:37;14.20;99.90
35531;DHT22;21637;53.352;-6.356;2022-10-31T16:33:04;14.10;99.90
35531;DHT22;21637;53.352;-6.356;2022-10-31T16:35:37;14.10;99.90
35531;DHT22;21637;53.352;-6.356;2022-10-31T16:38:03;14.10;99.90
35531;DHT22;21637;53.352;-6.356;2022-10-31T16:40:29;14.10;99.90
35531;DHT22;21637;53.352;-6.356;2022-10-31T16:42:56;14.00;99.90
35531;DHT22;21637;53.352;-6.356;2022-10-31T16:45:23;14.00;99.90
35531;DHT22;21637;53.352;-6.356;2022-10-31T16:47:49;13.90;99.90
35531;DHT22;21637;53.352;-6.356;2022-10-31T16:50:24;14.00;99.90
35531;DHT22;21637;53.352;-6.356;2022-10-31T16:52:50;13.90;99.90
35531;DHT22;21637;53.352;-6.356;2022-10-31T16:55:17;13.90;99.90
35531;DHT22;21637;53.352;-6.356;2022-10-31T16:57:45;13.90;99.90
35531;DHT22;21637;53.352;-6.356;2022-10-31T17:00:14;13.80;99.90
35531;DHT22;21637;53.352;-6.356;2022-10-31T17:02:40;13.80;99.90
35531;DHT22;21637;53.352;-6.356;2022-10-31T17:05:08;13.80;99.90
35531;DHT22;21637;53.352;-6.356;2022-10-31T17:07:34;13.80;99.90
35531;DHT22;21637;53.352;-6.356;2022-10-31T17:09:59;13.70;99.90
35531;DHT22;21637;53.352;-6.356;2022-10-31T17:12:25;13.70;99.90
35531;DHT22;21637;53.352;-6.356;2022-10-31T17:14:51;13.70;99.90
35531;DHT22;21637;53.352;-6.356;2022-10-31T17:17:17;13.70;99.90
35531;DHT22;21637;53.352;-6.356;2022-10-31T17:19:42;13.70;99.90
35531;DHT22;21637;53.352;-6.356;2022-10-31T17:22:11;13.60;99.90